sensor_id;sensor_type;location;lat;lon;timestamp;P1;durP1;ratioP1;P2;durP2;ratioP2
37445;SDS011;23307;51.136;14.942;2022-08-03T00:01:04;5.05;;;3.03;;
37445;SDS011;23307;51.136;14.942;2022-08-03T00:03:30;6.10;;;3.15;;
37445;SDS011;23307;51.136;14.942;2022-08-03T00:05:55;7.25;;;3.97;;
37445;SDS011;23307;51.136;14.942;2022-08-03T00:08:21;4.28;;;3.35;;
37445;SDS011;23307;51.136;14.942;2022-08-03T00:10:47;6.05;;;3.20;;
37445;SDS011;23307;51.136;14.942;2022-08-03T00:13:12;3.28;;;2.97;;
37445;SDS011;23307;51.136;14.942;2022-08-03T00:15:39;5.78;;;3.67;;
37445;SDS011;23307;51.136;14.942;2022-08-03T00:18:05;7.22;;;3.53;;
37445;SDS011;23307;51.136;14.942;2022-08-03T00:20:31;5.57;;;3.67;;
37445;SDS011;23307;51.136;14.942;2022-08-03T00:22:56;5.03;;;3.20;;
37445;SDS011;23307;51.136;14.942;2022-08-03T00:25:22;5.80;;;3.10;;
37445;SDS011;23307;51.136;14.942;2022-08-03T00:27:47;4.40;;;3.00;;
37445;SDS011;23307;51.136;14.942;2022-08-03T00:30:13;4.20;;;2.60;;
37445;SDS011;23307;51.136;14.942;2022-08-03T00:32:38;3.17;;;2.90;;
37445;SDS011;23307;51.136;14.942;2022-08-03T00:35:04;3.25;;;2.90;;
37445;SDS011;23307;51.136;14.942;2022-08-03T00:37:30;3.10;;;2.80;;
37445;SDS011;23307;51.136;14.942;2022-08-03T00:39:56;3.83;;;2.83;;
37445;SDS011;23307;51.136;14.942;2022-08-03T00:42:22;4.07;;;2.65;;
37445;SDS011;23307;51.136;14.942;2022-08-03T00:44:48;3.38;;;2.85;;
37445;SDS011;23307;51.136;14.942;2022-08-03T00:47:14;3.60;;;2.70;;
37445;SDS011;23307;51.136;14.942;2022-08-03T00:49:40;2.90;;;2.70;;
37445;SDS011;23307;51.136;14.942;2022-08-03T00:52:09;3.10;;;2.80;;
37445;SDS011;23307;51.136;14.942;2022-08-03T00:54:39;5.22;;;2.70;;
37445;SDS011;23307;51.136;14.942;2022-08-03T00:57:05;4.53;;;2.55;;
37445;SDS011;23307;51.136;14.942;2022-08-03T00:59:31;3.47;;;2.50;;
37445;SDS011;23307;51.136;14.942;2022-08-03T01:01:57;2.85;;;2.63;;
37445;SDS011;23307;51.136;14.942;2022-08-03T01:04:23;5.10;;;2.75;;
37445;SDS011;23307;51.136;14.942;2022-08-03T01:06:51;4.05;;;2.70;;
37445;SDS011;23307;51.136;14.942;2022-08-03T01:12:17;3.13;;;2.63;;
37445;SDS011;23307;51.136;14.942;2022-08-03T01:14:59;3.58;;;2.90;;
37445;SDS011;23307;51.136;14.942;2022-08-03T01:20:46;4.25;;;3.00;;
37445;SDS011;23307;51.136;14.942;2022-08-03T01:26:26;3.67;;;2.80;;
37445;SDS011;23307;51.136;14.942;2022-08-03T01:31:48;3.30;;;3.00;;
37445;SDS011;23307;51.136;14.942;2022-08-03T01:34:24;3.20;;;2.60;;
37445;SDS011;23307;51.136;14.942;2022-08-03T01:36:56;3.00;;;2.78;;
37445;SDS011;23307;51.136;14.942;2022-08-03T01:39:25;4.78;;;2.67;;
37445;SDS011;23307;51.136;14.942;2022-08-03T01:41:56;3.45;;;2.42;;
37445;SDS011;23307;51.136;14.942;2022-08-03T01:44:25;4.03;;;3.00;;
37445;SDS011;23307;51.136;14.942;2022-08-03T01:46:55;3.80;;;2.92;;
37445;SDS011;23307;51.136;14.942;2022-08-03T01:49:23;2.88;;;2.67;;
37445;SDS011;23307;51.136;14.942;2022-08-03T01:51:50;2.83;;;2.60;;
37445;SDS011;23307;51.136;14.942;2022-08-03T01:54:17;5.03;;;2.80;;
37445;SDS011;23307;51.136;14.942;2022-08-03T01:56:45;3.83;;;2.55;;
37445;SDS011;23307;51.136;14.942;2022-08-03T01:59:13;3.20;;;2.90;;
37445;SDS011;23307;51.136;14.942;2022-08-03T02:01:41;3.50;;;2.55;;
37445;SDS011;23307;51.136;14.942;2022-08-03T02:04:07;5.32;;;2.90;;
37445;SDS011;23307;51.136;14.942;2022-08-03T02:06:34;4.75;;;2.92;;
37445;SDS011;23307;51.136;14.942;2022-08-03T02:09:02;4.25;;;2.60;;
37445;SDS011;23307;51.136;14.942;2022-08-03T02:11:31;3.78;;;3.13;;
37445;SDS011;23307;51.136;14.942;2022-08-03T02:14:00;2.67;;;2.17;;
37445;SDS011;23307;51.136;14.942;2022-08-03T02:16:27;3.50;;;2.50;;
37445;SDS011;23307;51.136;14.942;2022-08-03T02:18:57;2.58;;;2.35;;
37445;SDS011;23307;51.136;14.942;2022-08-03T02:21:25;2.72;;;2.53;;
37445;SDS011;23307;51.136;14.942;2022-08-03T02:23:53;4.50;;;2.55;;
37445;SDS011;23307;51.136;14.942;2022-08-03T02:26:19;2.95;;;2.75;;
37445;SDS011;23307;51.136;14.942;2022-08-03T02:28:47;3.05;;;2.80;;
37445;SDS011;23307;51.136;14.942;2022-08-03T02:31:17;6.82;;;2.78;;
37445;SDS011;23307;51.136;14.942;2022-08-03T02:33:50;4.55;;;2.42;;
37445;SDS011;23307;51.136;14.942;2022-08-03T02:36:22;3.67;;;3.03;;
37445;SDS011;23307;51.136;14.942;2022-08-03T02:38:52;3.28;;;2.78;;
37445;SDS011;23307;51.136;14.942;2022-08-03T02:41:23;4.35;;;2.70;;
37445;SDS011;23307;51.136;14.942;2022-08-03T02:43:53;2.72;;;2.53;;
37445;SDS011;23307;51.136;14.942;2022-08-03T02:46:26;2.90;;;2.70;;
37445;SDS011;23307;51.136;14.942;2022-08-03T02:48:53;4.35;;;2.90;;
37445;SDS011;23307;51.136;14.942;2022-08-03T02:51:21;3.08;;;2.60;;
37445;SDS011;23307;51.136;14.942;2022-08-03T02:53:47;2.80;;;2.60;;
37445;SDS011;23307;51.136;14.942;2022-08-03T02:56:13;2.90;;;2.60;;
37445;SDS011;23307;51.136;14.942;2022-08-03T02:58:41;2.50;;;2.30;;
37445;SDS011;23307;51.136;14.942;2022-08-03T03:01:07;3.10;;;2.70;;
37445;SDS011;23307;51.136;14.942;2022-08-03T03:03:34;4.22;;;3.05;;
37445;SDS011;23307;51.136;14.942;2022-08-03T03:06:01;2.88;;;2.67;;
37445;SDS011;23307;51.136;14.942;2022-08-03T03:08:27;3.88;;;2.70;;
37445;SDS011;23307;51.136;14.942;2022-08-03T03:10:53;3.97;;;2.75;;
37445;SDS011;23307;51.136;14.942;2022-08-03T03:13:21;3.45;;;2.88;;
37445;SDS011;23307;51.136;14.942;2022-08-03T03:15:47;4.72;;;2.88;;
37445;SDS011;23307;51.136;14.942;2022-08-03T03:18:15;3.35;;;2.70;;
37445;SDS011;23307;51.136;14.942;2022-08-03T03:20:41;2.90;;;2.70;;
37445;SDS011;23307;51.136;14.942;2022-08-03T03:23:09;5.43;;;3.15;;
37445;SDS011;23307;51.136;14.942;2022-08-03T03:25:36;2.78;;;2.58;;
37445;SDS011;23307;51.136;14.942;2022-08-03T03:28:03;3.13;;;2.78;;
37445;SDS011;23307;51.136;14.942;2022-08-03T03:30:30;2.97;;;2.78;;
37445;SDS011;23307;51.136;14.942;2022-08-03T03:32:57;4.60;;;2.80;;
37445;SDS011;23307;51.136;14.942;2022-08-03T03:35:23;4.32;;;2.80;;
37445;SDS011;23307;51.136;14.942;2022-08-03T03:37:50;4.43;;;2.58;;
37445;SDS011;23307;51.136;14.942;2022-08-03T03:40:16;4.45;;;2.50;;
37445;SDS011;23307;51.136;14.942;2022-08-03T03:42:43;3.47;;;2.80;;
37445;SDS011;23307;51.136;14.942;2022-08-03T03:45:09;3.22;;;2.55;;
37445;SDS011;23307;51.136;14.942;2022-08-03T03:47:35;3.22;;;2.40;;
37445;SDS011;23307;51.136;14.942;2022-08-03T03:50:02;4.43;;;2.72;;
37445;SDS011;23307;51.136;14.942;2022-08-03T03:52:28;4.60;;;2.90;;
37445;SDS011;23307;51.136;14.942;2022-08-03T03:54:55;5.13;;;2.83;;
37445;SDS011;23307;51.136;14.942;2022-08-03T03:57:20;4.65;;;2.90;;
37445;SDS011;23307;51.136;14.942;2022-08-03T03:59:46;3.65;;;2.50;;
37445;SDS011;23307;51.136;14.942;2022-08-03T04:02:13;3.20;;;2.85;;
37445;SDS011;23307;51.136;14.942;2022-08-03T04:04:38;5.25;;;2.95;;
37445;SDS011;23307;51.136;14.942;2022-08-03T04:07:23;3.38;;;2.88;;
37445;SDS011;23307;51.136;14.942;2022-08-03T04:10:12;3.70;;;3.15;;
37445;SDS011;23307;51.136;14.942;2022-08-03T04:12:59;4.88;;;2.78;;
37445;SDS011;23307;51.136;14.942;2022-08-03T04:15:28;3.35;;;3.05;;
37445;SDS011;23307;51.136;14.942;2022-08-03T04:17:57;3.55;;;2.80;;
37445;SDS011;23307;51.136;14.942;2022-08-03T04:20:25;5.47;;;2.75;;
37445;SDS011;23307;51.136;14.942;2022-08-03T04:22:54;2.83;;;2.40;;
37445;SDS011;23307;51.136;14.942;2022-08-03T04:25:22;4.63;;;2.80;;
37445;SDS011;23307;51.136;14.942;2022-08-03T04:27:52;4.63;;;2.70;;
37445;SDS011;23307;51.136;14.942;2022-08-03T04:30:22;4.10;;;2.63;;
37445;SDS011;23307;51.136;14.942;2022-08-03T04:32:50;3.10;;;2.72;;
37445;SDS011;23307;51.136;14.942;2022-08-03T04:35:17;5.20;;;2.90;;
37445;SDS011;23307;51.136;14.942;2022-08-03T04:37:44;5.30;;;2.80;;
37445;SDS011;23307;51.136;14.942;2022-08-03T04:40:13;3.30;;;3.00;;
37445;SDS011;23307;51.136;14.942;2022-08-03T04:42:44;5.05;;;2.95;;
37445;SDS011;23307;51.136;14.942;2022-08-03T04:45:12;6.72;;;3.22;;
37445;SDS011;23307;51.136;14.942;2022-08-03T04:47:38;4.38;;;3.05;;
37445;SDS011;23307;51.136;14.942;2022-08-03T04:50:05;4.35;;;2.75;;
37445;SDS011;23307;51.136;14.942;2022-08-03T04:52:33;6.32;;;3.22;;
37445;SDS011;23307;51.136;14.942;2022-08-03T04:54:59;3.58;;;2.60;;
37445;SDS011;23307;51.136;14.942;2022-08-03T04:57:25;5.68;;;3.00;;
37445;SDS011;23307;51.136;14.942;2022-08-03T04:59:51;3.72;;;2.78;;
37445;SDS011;23307;51.136;14.942;2022-08-03T05:02:20;7.22;;;3.30;;
37445;SDS011;23307;51.136;14.942;2022-08-03T05:04:46;4.90;;;3.17;;
37445;SDS011;23307;51.136;14.942;2022-08-03T05:07:13;4.40;;;2.80;;
37445;SDS011;23307;51.136;14.942;2022-08-03T05:09:39;4.05;;;3.05;;
37445;SDS011;23307;51.136;14.942;2022-08-03T05:12:04;4.25;;;3.28;;
37445;SDS011;23307;51.136;14.942;2022-08-03T05:14:31;2.90;;;2.70;;
37445;SDS011;23307;51.136;14.942;2022-08-03T05:16:57;4.43;;;2.95;;
37445;SDS011;23307;51.136;14.942;2022-08-03T05:19:22;3.65;;;2.70;;
37445;SDS011;23307;51.136;14.942;2022-08-03T05:21:48;3.95;;;2.80;;
37445;SDS011;23307;51.136;14.942;2022-08-03T05:24:14;3.10;;;2.80;;
37445;SDS011;23307;51.136;14.942;2022-08-03T05:26:40;3.85;;;2.97;;
37445;SDS011;23307;51.136;14.942;2022-08-03T05:29:06;3.58;;;2.80;;
37445;SDS011;23307;51.136;14.942;2022-08-03T05:31:31;4.25;;;3.08;;
37445;SDS011;23307;51.136;14.942;2022-08-03T05:33:57;3.55;;;2.92;;
37445;SDS011;23307;51.136;14.942;2022-08-03T05:36:23;4.75;;;3.00;;
37445;SDS011;23307;51.136;14.942;2022-08-03T05:38:49;6.30;;;2.67;;
37445;SDS011;23307;51.136;14.942;2022-08-03T05:41:14;2.97;;;2.60;;
37445;SDS011;23307;51.136;14.942;2022-08-03T05:43:40;5.18;;;2.50;;
37445;SDS011;23307;51.136;14.942;2022-08-03T05:46:05;5.70;;;2.80;;
37445;SDS011;23307;51.136;14.942;2022-08-03T05:48:31;3.30;;;3.00;;
37445;SDS011;23307;51.136;14.942;2022-08-03T05:50:57;5.13;;;2.97;;
37445;SDS011;23307;51.136;14.942;2022-08-03T05:53:22;4.65;;;2.85;;
37445;SDS011;23307;51.136;14.942;2022-08-03T05:55:47;2.70;;;2.50;;
37445;SDS011;23307;51.136;14.942;2022-08-03T05:58:13;3.38;;;2.70;;
37445;SDS011;23307;51.136;14.942;2022-08-03T06:00:38;5.20;;;2.80;;
37445;SDS011;23307;51.136;14.942;2022-08-03T06:03:04;2.78;;;2.40;;
37445;SDS011;23307;51.136;14.942;2022-08-03T06:05:30;2.80;;;2.47;;
37445;SDS011;23307;51.136;14.942;2022-08-03T06:07:56;5.53;;;2.38;;
37445;SDS011;23307;51.136;14.942;2022-08-03T06:10:22;3.00;;;2.38;;
37445;SDS011;23307;51.136;14.942;2022-08-03T06:12:47;2.60;;;2.40;;
37445;SDS011;23307;51.136;14.942;2022-08-03T06:15:14;2.97;;;2.72;;
37445;SDS011;23307;51.136;14.942;2022-08-03T06:17:44;3.25;;;2.40;;
37445;SDS011;23307;51.136;14.942;2022-08-03T06:20:12;3.00;;;2.70;;
37445;SDS011;23307;51.136;14.942;2022-08-03T06:22:38;3.55;;;2.42;;
37445;SDS011;23307;51.136;14.942;2022-08-03T06:25:03;2.42;;;2.22;;
37445;SDS011;23307;51.136;14.942;2022-08-03T06:27:30;2.50;;;2.13;;
37445;SDS011;23307;51.136;14.942;2022-08-03T06:29:55;2.70;;;2.20;;
37445;SDS011;23307;51.136;14.942;2022-08-03T06:32:21;2.92;;;2.40;;
37445;SDS011;23307;51.136;14.942;2022-08-03T06:34:46;2.83;;;2.60;;
37445;SDS011;23307;51.136;14.942;2022-08-03T06:37:12;4.22;;;2.20;;
37445;SDS011;23307;51.136;14.942;2022-08-03T06:39:38;3.35;;;2.20;;
37445;SDS011;23307;51.136;14.942;2022-08-03T06:42:04;2.15;;;2.00;;
37445;SDS011;23307;51.136;14.942;2022-08-03T06:44:30;3.42;;;2.60;;
37445;SDS011;23307;51.136;14.942;2022-08-03T06:46:55;3.03;;;2.20;;
37445;SDS011;23307;51.136;14.942;2022-08-03T06:49:21;4.75;;;1.98;;
37445;SDS011;23307;51.136;14.942;2022-08-03T06:51:46;3.63;;;2.05;;
37445;SDS011;23307;51.136;14.942;2022-08-03T06:54:14;3.20;;;2.40;;
37445;SDS011;23307;51.136;14.942;2022-08-03T06:56:40;5.00;;;2.17;;
37445;SDS011;23307;51.136;14.942;2022-08-03T06:59:05;2.13;;;1.90;;
37445;SDS011;23307;51.136;14.942;2022-08-03T07:01:31;3.33;;;2.28;;
37445;SDS011;23307;51.136;14.942;2022-08-03T07:03:56;2.97;;;2.33;;
37445;SDS011;23307;51.136;14.942;2022-08-03T07:06:24;4.25;;;2.10;;
37445;SDS011;23307;51.136;14.942;2022-08-03T07:08:49;4.65;;;1.90;;
37445;SDS011;23307;51.136;14.942;2022-08-03T07:11:15;2.45;;;2.10;;
37445;SDS011;23307;51.136;14.942;2022-08-03T07:13:41;1.90;;;1.80;;
37445;SDS011;23307;51.136;14.942;2022-08-03T07:16:07;2.17;;;1.95;;
37445;SDS011;23307;51.136;14.942;2022-08-03T07:18:36;3.20;;;2.45;;
37445;SDS011;23307;51.136;14.942;2022-08-03T07:21:03;4.28;;;2.05;;
37445;SDS011;23307;51.136;14.942;2022-08-03T07:23:28;2.63;;;1.85;;
37445;SDS011;23307;51.136;14.942;2022-08-03T07:25:54;2.58;;;1.80;;
37445;SDS011;23307;51.136;14.942;2022-08-03T07:28:20;2.90;;;1.98;;
37445;SDS011;23307;51.136;14.942;2022-08-03T07:30:46;2.65;;;1.80;;
37445;SDS011;23307;51.136;14.942;2022-08-03T07:33:11;3.85;;;1.90;;
37445;SDS011;23307;51.136;14.942;2022-08-03T07:35:37;2.72;;;2.00;;
37445;SDS011;23307;51.136;14.942;2022-08-03T07:38:03;4.03;;;1.92;;
37445;SDS011;23307;51.136;14.942;2022-08-03T07:40:29;4.57;;;2.13;;
37445;SDS011;23307;51.136;14.942;2022-08-03T07:42:54;3.13;;;1.75;;
37445;SDS011;23307;51.136;14.942;2022-08-03T07:45:20;2.28;;;1.70;;
37445;SDS011;23307;51.136;14.942;2022-08-03T07:47:47;2.75;;;1.63;;
37445;SDS011;23307;51.136;14.942;2022-08-03T07:50:13;2.17;;;1.73;;
37445;SDS011;23307;51.136;14.942;2022-08-03T07:52:39;2.78;;;1.60;;
37445;SDS011;23307;51.136;14.942;2022-08-03T07:55:14;3.58;;;1.50;;
37445;SDS011;23307;51.136;14.942;2022-08-03T07:57:40;4.50;;;1.92;;
37445;SDS011;23307;51.136;14.942;2022-08-03T08:00:10;2.25;;;1.60;;
37445;SDS011;23307;51.136;14.942;2022-08-03T08:02:38;4.78;;;1.85;;
37445;SDS011;23307;51.136;14.942;2022-08-03T08:05:04;1.80;;;1.60;;
37445;SDS011;23307;51.136;14.942;2022-08-03T08:07:30;1.70;;;1.60;;
37445;SDS011;23307;51.136;14.942;2022-08-03T08:09:56;3.38;;;1.38;;
37445;SDS011;23307;51.136;14.942;2022-08-03T08:12:21;2.08;;;1.65;;
37445;SDS011;23307;51.136;14.942;2022-08-03T08:14:47;2.25;;;1.55;;
37445;SDS011;23307;51.136;14.942;2022-08-03T08:17:13;3.25;;;1.80;;
37445;SDS011;23307;51.136;14.942;2022-08-03T08:19:38;5.95;;;1.75;;
37445;SDS011;23307;51.136;14.942;2022-08-03T08:22:04;1.70;;;1.60;;
37445;SDS011;23307;51.136;14.942;2022-08-03T08:24:30;2.90;;;1.63;;
37445;SDS011;23307;51.136;14.942;2022-08-03T08:26:57;1.80;;;1.65;;
37445;SDS011;23307;51.136;14.942;2022-08-03T08:29:25;1.65;;;1.40;;
37445;SDS011;23307;51.136;14.942;2022-08-03T08:31:51;1.60;;;1.48;;
37445;SDS011;23307;51.136;14.942;2022-08-03T08:34:17;3.60;;;1.60;;
37445;SDS011;23307;51.136;14.942;2022-08-03T08:36:42;2.10;;;1.40;;
37445;SDS011;23307;51.136;14.942;2022-08-03T08:39:08;2.30;;;1.60;;
37445;SDS011;23307;51.136;14.942;2022-08-03T08:41:34;1.60;;;1.50;;
37445;SDS011;23307;51.136;14.942;2022-08-03T08:44:00;5.10;;;1.98;;
37445;SDS011;23307;51.136;14.942;2022-08-03T08:46:26;1.70;;;1.55;;
37445;SDS011;23307;51.136;14.942;2022-08-03T08:48:56;1.98;;;1.58;;
37445;SDS011;23307;51.136;14.942;2022-08-03T08:51:26;2.47;;;1.55;;
37445;SDS011;23307;51.136;14.942;2022-08-03T08:53:53;1.50;;;1.40;;
37445;SDS011;23307;51.136;14.942;2022-08-03T08:56:22;2.80;;;1.63;;
37445;SDS011;23307;51.136;14.942;2022-08-03T08:58:57;1.52;;;1.42;;
37445;SDS011;23307;51.136;14.942;2022-08-03T09:01:23;4.57;;;1.70;;
37445;SDS011;23307;51.136;14.942;2022-08-03T09:03:49;2.67;;;1.85;;
37445;SDS011;23307;51.136;14.942;2022-08-03T09:06:17;1.85;;;1.60;;
37445;SDS011;23307;51.136;14.942;2022-08-03T09:08:42;1.73;;;1.60;;
37445;SDS011;23307;51.136;14.942;2022-08-03T09:11:08;2.38;;;1.60;;
37445;SDS011;23307;51.136;14.942;2022-08-03T09:13:34;2.25;;;1.48;;
37445;SDS011;23307;51.136;14.942;2022-08-03T09:16:10;3.15;;;1.70;;
37445;SDS011;23307;51.136;14.942;2022-08-03T09:18:37;2.25;;;1.40;;
37445;SDS011;23307;51.136;14.942;2022-08-03T09:21:16;3.05;;;1.60;;
37445;SDS011;23307;51.136;14.942;2022-08-03T09:23:45;1.77;;;1.50;;
37445;SDS011;23307;51.136;14.942;2022-08-03T09:26:22;3.90;;;1.70;;
37445;SDS011;23307;51.136;14.942;2022-08-03T09:28:54;4.18;;;2.00;;
37445;SDS011;23307;51.136;14.942;2022-08-03T09:31:28;1.85;;;1.40;;
37445;SDS011;23307;51.136;14.942;2022-08-03T09:34:02;1.60;;;1.50;;
37445;SDS011;23307;51.136;14.942;2022-08-03T09:36:43;1.98;;;1.50;;
37445;SDS011;23307;51.136;14.942;2022-08-03T09:39:10;5.78;;;1.73;;
37445;SDS011;23307;51.136;14.942;2022-08-03T09:41:38;3.10;;;1.70;;
37445;SDS011;23307;51.136;14.942;2022-08-03T09:44:05;1.95;;;1.52;;
37445;SDS011;23307;51.136;14.942;2022-08-03T09:46:45;1.42;;;1.33;;
37445;SDS011;23307;51.136;14.942;2022-08-03T09:49:12;3.00;;;1.80;;
37445;SDS011;23307;51.136;14.942;2022-08-03T09:51:38;3.53;;;1.75;;
37445;SDS011;23307;51.136;14.942;2022-08-03T09:54:04;4.15;;;1.42;;
37445;SDS011;23307;51.136;14.942;2022-08-03T09:56:40;2.55;;;1.30;;
37445;SDS011;23307;51.136;14.942;2022-08-03T09:59:10;2.97;;;1.85;;
37445;SDS011;23307;51.136;14.942;2022-08-03T10:01:37;2.38;;;1.55;;
37445;SDS011;23307;51.136;14.942;2022-08-03T10:04:10;3.28;;;1.30;;
37445;SDS011;23307;51.136;14.942;2022-08-03T10:06:44;2.90;;;1.30;;
37445;SDS011;23307;51.136;14.942;2022-08-03T10:09:24;2.30;;;1.60;;
37445;SDS011;23307;51.136;14.942;2022-08-03T10:11:50;1.77;;;1.35;;
37445;SDS011;23307;51.136;14.942;2022-08-03T10:14:16;2.38;;;1.30;;
37445;SDS011;23307;51.136;14.942;2022-08-03T10:16:44;1.42;;;1.20;;
37445;SDS011;23307;51.136;14.942;2022-08-03T10:19:11;1.40;;;1.30;;
37445;SDS011;23307;51.136;14.942;2022-08-03T10:21:38;1.30;;;1.20;;
37445;SDS011;23307;51.136;14.942;2022-08-03T10:24:06;1.55;;;1.20;;
37445;SDS011;23307;51.136;14.942;2022-08-03T10:26:35;1.67;;;1.40;;
37445;SDS011;23307;51.136;14.942;2022-08-03T10:29:07;1.83;;;1.27;;
37445;SDS011;23307;51.136;14.942;2022-08-03T10:31:43;2.55;;;1.33;;
37445;SDS011;23307;51.136;14.942;2022-08-03T10:34:13;4.03;;;1.33;;
37445;SDS011;23307;51.136;14.942;2022-08-03T10:36:42;2.38;;;1.30;;
37445;SDS011;23307;51.136;14.942;2022-08-03T10:39:09;2.70;;;1.48;;
37445;SDS011;23307;51.136;14.942;2022-08-03T10:41:38;4.15;;;1.38;;
37445;SDS011;23307;51.136;14.942;2022-08-03T10:44:09;1.60;;;1.45;;
37445;SDS011;23307;51.136;14.942;2022-08-03T10:46:39;4.07;;;1.48;;
37445;SDS011;23307;51.136;14.942;2022-08-03T10:49:07;2.38;;;1.60;;
37445;SDS011;23307;51.136;14.942;2022-08-03T10:51:36;1.95;;;1.30;;
37445;SDS011;23307;51.136;14.942;2022-08-03T10:54:02;3.60;;;1.55;;
37445;SDS011;23307;51.136;14.942;2022-08-03T10:59:15;3.22;;;1.48;;
37445;SDS011;23307;51.136;14.942;2022-08-03T11:01:51;1.60;;;1.50;;
37445;SDS011;23307;51.136;14.942;2022-08-03T11:04:18;3.33;;;1.38;;
37445;SDS011;23307;51.136;14.942;2022-08-03T11:06:45;3.03;;;1.50;;
37445;SDS011;23307;51.136;14.942;2022-08-03T11:11:40;3.10;;;1.50;;
37445;SDS011;23307;51.136;14.942;2022-08-03T11:14:08;1.50;;;1.40;;
37445;SDS011;23307;51.136;14.942;2022-08-03T11:16:37;1.30;;;1.20;;
37445;SDS011;23307;51.136;14.942;2022-08-03T11:19:09;1.50;;;1.40;;
37445;SDS011;23307;51.136;14.942;2022-08-03T11:29:55;2.95;;;1.40;;
37445;SDS011;23307;51.136;14.942;2022-08-03T11:35:09;1.80;;;1.48;;
37445;SDS011;23307;51.136;14.942;2022-08-03T11:40:40;2.88;;;1.50;;
37445;SDS011;23307;51.136;14.942;2022-08-03T11:48:33;2.30;;;1.55;;
37445;SDS011;23307;51.136;14.942;2022-08-03T11:51:04;2.03;;;1.30;;
37445;SDS011;23307;51.136;14.942;2022-08-03T11:53:32;1.73;;;1.35;;
37445;SDS011;23307;51.136;14.942;2022-08-03T11:55:59;1.50;;;1.40;;
37445;SDS011;23307;51.136;14.942;2022-08-03T11:58:25;2.00;;;1.50;;
37445;SDS011;23307;51.136;14.942;2022-08-03T12:00:53;1.35;;;1.25;;
37445;SDS011;23307;51.136;14.942;2022-08-03T12:03:31;1.85;;;1.45;;
37445;SDS011;23307;51.136;14.942;2022-08-03T12:05:57;1.45;;;1.30;;
37445;SDS011;23307;51.136;14.942;2022-08-03T12:10:52;1.38;;;1.27;;
37445;SDS011;23307;51.136;14.942;2022-08-03T12:13:19;1.67;;;1.27;;
37445;SDS011;23307;51.136;14.942;2022-08-03T12:15:49;1.33;;;1.23;;
37445;SDS011;23307;51.136;14.942;2022-08-03T12:18:17;1.50;;;1.40;;
37445;SDS011;23307;51.136;14.942;2022-08-03T12:20:43;2.88;;;1.38;;
37445;SDS011;23307;51.136;14.942;2022-08-03T12:23:09;1.55;;;1.40;;
37445;SDS011;23307;51.136;14.942;2022-08-03T12:25:37;1.50;;;1.40;;
37445;SDS011;23307;51.136;14.942;2022-08-03T12:28:11;1.60;;;1.40;;
37445;SDS011;23307;51.136;14.942;2022-08-03T12:30:37;1.83;;;1.30;;
37445;SDS011;23307;51.136;14.942;2022-08-03T12:38:33;2.13;;;1.40;;
37445;SDS011;23307;51.136;14.942;2022-08-03T12:41:07;1.50;;;1.40;;
37445;SDS011;23307;51.136;14.942;2022-08-03T12:43:49;1.80;;;1.45;;
37445;SDS011;23307;51.136;14.942;2022-08-03T12:46:16;1.50;;;1.40;;
37445;SDS011;23307;51.136;14.942;2022-08-03T12:48:56;2.13;;;1.38;;
37445;SDS011;23307;51.136;14.942;2022-08-03T12:51:27;1.73;;;1.40;;
37445;SDS011;23307;51.136;14.942;2022-08-03T12:53:54;1.40;;;1.30;;
37445;SDS011;23307;51.136;14.942;2022-08-03T12:56:21;1.58;;;1.48;;
37445;SDS011;23307;51.136;14.942;2022-08-03T12:58:47;3.97;;;1.40;;
37445;SDS011;23307;51.136;14.942;2022-08-03T13:01:14;1.30;;;1.20;;
37445;SDS011;23307;51.136;14.942;2022-08-03T13:03:44;3.10;;;1.60;;
37445;SDS011;23307;51.136;14.942;2022-08-03T13:06:13;1.92;;;1.40;;
37445;SDS011;23307;51.136;14.942;2022-08-03T13:08:40;2.50;;;1.50;;
37445;SDS011;23307;51.136;14.942;2022-08-03T13:14:01;2.33;;;1.50;;
37445;SDS011;23307;51.136;14.942;2022-08-03T13:16:27;1.35;;;1.25;;
37445;SDS011;23307;51.136;14.942;2022-08-03T13:18:52;1.83;;;1.25;;
37445;SDS011;23307;51.136;14.942;2022-08-03T13:21:18;1.40;;;1.30;;
37445;SDS011;23307;51.136;14.942;2022-08-03T13:23:45;1.63;;;1.52;;
37445;SDS011;23307;51.136;14.942;2022-08-03T13:26:11;3.08;;;1.35;;
37445;SDS011;23307;51.136;14.942;2022-08-03T13:28:37;2.60;;;1.35;;
37445;SDS011;23307;51.136;14.942;2022-08-03T13:31:03;1.45;;;1.35;;
37445;SDS011;23307;51.136;14.942;2022-08-03T13:33:30;1.83;;;1.42;;
37445;SDS011;23307;51.136;14.942;2022-08-03T13:35:55;2.17;;;1.30;;
37445;SDS011;23307;51.136;14.942;2022-08-03T13:38:21;2.17;;;1.40;;
37445;SDS011;23307;51.136;14.942;2022-08-03T13:40:46;1.40;;;1.30;;
37445;SDS011;23307;51.136;14.942;2022-08-03T13:43:12;1.80;;;1.30;;
37445;SDS011;23307;51.136;14.942;2022-08-03T13:45:37;1.60;;;1.50;;
37445;SDS011;23307;51.136;14.942;2022-08-03T13:48:03;3.08;;;1.70;;
37445;SDS011;23307;51.136;14.942;2022-08-03T13:50:29;2.55;;;1.40;;
37445;SDS011;23307;51.136;14.942;2022-08-03T13:52:57;1.67;;;1.48;;
37445;SDS011;23307;51.136;14.942;2022-08-03T13:55:23;1.35;;;1.20;;
37445;SDS011;23307;51.136;14.942;2022-08-03T13:57:48;2.65;;;1.50;;
37445;SDS011;23307;51.136;14.942;2022-08-03T14:00:14;2.17;;;1.50;;
37445;SDS011;23307;51.136;14.942;2022-08-03T14:02:42;1.58;;;1.48;;
37445;SDS011;23307;51.136;14.942;2022-08-03T14:05:08;2.10;;;1.60;;
37445;SDS011;23307;51.136;14.942;2022-08-03T14:07:33;2.10;;;1.20;;
37445;SDS011;23307;51.136;14.942;2022-08-03T14:09:59;1.42;;;1.33;;
37445;SDS011;23307;51.136;14.942;2022-08-03T14:12:25;2.33;;;1.40;;
37445;SDS011;23307;51.136;14.942;2022-08-03T14:14:51;3.03;;;1.40;;
37445;SDS011;23307;51.136;14.942;2022-08-03T14:17:17;1.40;;;1.30;;
37445;SDS011;23307;51.136;14.942;2022-08-03T14:19:42;2.42;;;1.30;;
37445;SDS011;23307;51.136;14.942;2022-08-03T14:22:08;2.58;;;1.30;;
37445;SDS011;23307;51.136;14.942;2022-08-03T14:24:33;3.33;;;1.30;;
37445;SDS011;23307;51.136;14.942;2022-08-03T14:26:59;1.60;;;1.25;;
37445;SDS011;23307;51.136;14.942;2022-08-03T14:29:24;1.67;;;1.20;;
37445;SDS011;23307;51.136;14.942;2022-08-03T14:31:50;1.30;;;1.20;;
37445;SDS011;23307;51.136;14.942;2022-08-03T14:34:15;3.90;;;1.60;;
37445;SDS011;23307;51.136;14.942;2022-08-03T14:36:41;1.35;;;1.30;;
37445;SDS011;23307;51.136;14.942;2022-08-03T14:39:06;3.42;;;1.40;;
37445;SDS011;23307;51.136;14.942;2022-08-03T14:41:32;2.67;;;1.30;;
37445;SDS011;23307;51.136;14.942;2022-08-03T14:43:57;1.50;;;1.40;;
37445;SDS011;23307;51.136;14.942;2022-08-03T14:46:23;1.40;;;1.30;;
37445;SDS011;23307;51.136;14.942;2022-08-03T14:48:49;1.23;;;1.13;;
37445;SDS011;23307;51.136;14.942;2022-08-03T14:51:14;3.50;;;1.40;;
37445;SDS011;23307;51.136;14.942;2022-08-03T14:53:40;1.40;;;1.30;;
37445;SDS011;23307;51.136;14.942;2022-08-03T14:56:05;1.25;;;1.15;;
37445;SDS011;23307;51.136;14.942;2022-08-03T14:58:31;3.15;;;1.58;;
37445;SDS011;23307;51.136;14.942;2022-08-03T15:00:57;3.53;;;1.77;;
37445;SDS011;23307;51.136;14.942;2022-08-03T15:03:22;1.42;;;1.30;;
37445;SDS011;23307;51.136;14.942;2022-08-03T15:05:49;2.35;;;1.33;;
37445;SDS011;23307;51.136;14.942;2022-08-03T15:08:16;1.38;;;1.27;;
37445;SDS011;23307;51.136;14.942;2022-08-03T15:10:42;1.20;;;1.10;;
37445;SDS011;23307;51.136;14.942;2022-08-03T15:13:08;3.95;;;1.70;;
37445;SDS011;23307;51.136;14.942;2022-08-03T15:15:33;1.73;;;1.38;;
37445;SDS011;23307;51.136;14.942;2022-08-03T15:17:59;1.40;;;1.30;;
37445;SDS011;23307;51.136;14.942;2022-08-03T15:20:24;1.30;;;1.20;;
37445;SDS011;23307;51.136;14.942;2022-08-03T15:22:50;1.50;;;1.40;;